Time;durP1;ratioP1;P1;durP2;ratioP2;P2;SDS_P1;SDS_P2;PMS_P1;PMS_P2;Temp;Humidity;BMP_temperature;BMP_pressure;BME280_temperature;BME280_humidity;BME280_pressure;Samples;Min_cycle;Max_cycle;Signal;HPM_P1;HPM_P2
2023/07/07 00:00:18;;;;;;;5.47;4.50;;;14.70;99.90;;;;;;5076996;28;20040;-67
2023/07/07 00:02:44;;;;;;;5.40;4.18;;;14.70;99.90;;;;;;5060513;28;20063;-67
2023/07/07 00:05:11;;;;;;;5.07;4.40;;;14.70;99.90;;;;;;5060079;28;20177;-66
2023/07/07 00:07:38;;;;;;;6.45;4.80;;;14.70;99.90;;;;;;5060439;28;20052;-66
2023/07/07 00:10:05;;;;;;;5.35;4.43;;;14.70;99.90;;;;;;5076996;28;20403;-68
2023/07/07 00:12:32;;;;;;;6.75;4.80;;;14.60;99.90;;;;;;5076528;28;20276;-67
2023/07/07 00:14:59;;;;;;;6.35;5.15;;;14.70;99.90;;;;;;5076516;28;20047;-68
2023/07/07 00:17:25;;;;;;;5.07;4.57;;;14.60;99.90;;;;;;5060279;28;20048;-67
2023/07/07 00:19:53;;;;;;;8.02;5.10;;;14.60;99.90;;;;;;5059960;28;20496;-67
2023/07/07 00:22:19;;;;;;;8.23;5.22;;;14.50;99.90;;;;;;5076295;28;20048;-67
2023/07/07 00:24:45;;;;;;;5.43;4.60;;;14.50;99.90;;;;;;5076552;28;20047;-67
2023/07/07 00:27:12;;;;;;;7.82;4.50;;;14.40;99.90;;;;;;5077087;28;20482;-67
2023/07/07 00:29:39;;;;;;;6.43;4.88;;;14.50;99.90;;;;;;5060182;28;20048;-67
2023/07/07 00:32:06;;;;;;;7.50;5.40;;;14.50;99.90;;;;;;5076122;28;20056;-68
2023/07/07 00:34:32;;;;;;;6.60;5.25;;;14.50;99.90;;;;;;5059496;28;20052;-66
2023/07/07 00:36:58;;;;;;;7.28;5.65;;;14.50;99.90;;;;;;5076513;28;20052;-66
2023/07/07 00:39:26;;;;;;;6.30;5.07;;;14.50;99.90;;;;;;5076622;28;20044;-67
2023/07/07 00:41:53;;;;;;;8.02;5.57;;;14.50;99.90;;;;;;5076311;28;20056;-67
2023/07/07 00:44:19;;;;;;;8.32;5.75;;;14.50;99.90;;;;;;5075689;28;20052;-67
2023/07/07 00:46:45;;;;;;;8.48;5.78;;;14.50;99.90;;;;;;5076562;28;20044;-67
2023/07/07 00:49:18;;;;;;;6.70;5.32;;;14.50;99.90;;;;;;5076681;28;20051;-67
2023/07/07 00:52:17;;;;;;;6.90;6.00;;;14.40;99.90;;;;;;5076181;28;20054;-67
2023/07/07 00:54:44;;;;;;;7.35;6.10;;;14.40;99.90;;;;;;5076107;28;20078;-66
2023/07/07 00:57:10;;;;;;;12.18;6.40;;;14.30;99.90;;;;;;5076401;28;20055;-67
2023/07/07 00:59:40;;;;;;;8.35;6.13;;;14.30;99.90;;;;;;5075948;28;20052;-66
2023/07/07 01:02:13;;;;;;;8.60;6.30;;;14.30;99.90;;;;;;5075884;28;20048;-67
2023/07/07 01:04:51;;;;;;;7.82;6.25;;;14.30;99.90;;;;;;5059035;28;20055;-66
2023/07/07 01:07:40;;;;;;;9.55;6.80;;;14.30;99.90;;;;;;5075893;28;20048;-69
2023/07/07 01:10:06;;;;;;;10.88;6.93;;;14.20;99.90;;;;;;5076159;28;20052;-67
2023/07/07 01:12:33;;;;;;;8.75;6.15;;;14.20;99.90;;;;;;5075587;28;20430;-66
2023/07/07 01:15:01;;;;;;;13.10;6.80;;;14.20;99.90;;;;;;5075567;28;20471;-66
2023/07/07 01:17:34;;;;;;;8.15;6.65;;;14.10;99.90;;;;;;5075658;28;20051;-67
2023/07/07 01:20:31;;;;;;;7.03;5.80;;;14.20;99.90;;;;;;5075809;28;20403;-67
2023/07/07 01:23:15;;;;;;;9.57;7.30;;;14.10;99.90;;;;;;5075332;28;20056;-67
2023/07/07 01:25:55;;;;;;;12.30;7.88;;;14.10;99.90;;;;;;5075497;28;20067;-68
2023/07/07 01:29:03;;;;;;;7.82;7.00;;;14.00;99.90;;;;;;5058768;28;20109;-67
2023/07/07 01:31:40;;;;;;;8.80;7.10;;;14.00;99.90;;;;;;5058966;28;20051;-67
2023/07/07 01:34:10;;;;;;;10.73;7.93;;;14.00;99.90;;;;;;5056933;28;20055;-67
2023/07/07 01:36:40;;;;;;;10.40;6.72;;;13.90;99.90;;;;;;5038253;28;20048;-66
2023/07/07 01:39:06;;;;;;;9.07;7.35;;;13.80;99.90;;;;;;5055234;28;20102;-67
2023/07/07 01:41:54;;;;;;;8.02;7.20;;;13.80;99.90;;;;;;5055352;28;20445;-67
2023/07/07 01:44:39;;;;;;;10.43;7.47;;;13.80;99.90;;;;;;5054495;28;20049;-67
2023/07/07 01:47:20;;;;;;;15.32;7.97;;;13.70;99.90;;;;;;5018986;28;20512;-66
2023/07/07 01:50:01;;;;;;;9.45;8.30;;;13.70;99.90;;;;;;5018539;28;20052;-67
2023/07/07 01:52:52;;;;;;;11.38;7.78;;;13.70;99.90;;;;;;5052492;28;20103;-66
2023/07/07 01:55:21;;;;;;;12.13;9.07;;;13.80;99.90;;;;;;5061493;28;20044;-68
2023/07/07 01:57:50;;;;;;;10.43;8.90;;;13.70;99.90;;;;;;5072738;28;20045;-67
2023/07/07 02:00:17;;;;;;;13.25;9.35;;;13.70;99.90;;;;;;5054741;28;20049;-67
2023/07/07 02:02:45;;;;;;;13.10;9.50;;;13.70;99.90;;;;;;5054834;28;20060;-67
2023/07/07 02:05:18;;;;;;;12.50;9.57;;;13.70;99.90;;;;;;5054403;28;20045;-66
2023/07/07 02:07:44;;;;;;;12.57;9.77;;;13.70;99.90;;;;;;5072612;28;20052;-66
2023/07/07 02:10:11;;;;;;;14.13;9.77;;;13.70;99.90;;;;;;5054783;28;20044;-66
2023/07/07 02:12:37;;;;;;;13.88;10.48;;;13.70;99.90;;;;;;5054124;28;20049;-66
2023/07/07 02:15:04;;;;;;;13.18;10.70;;;13.60;99.90;;;;;;5072221;28;20106;-67
2023/07/07 02:17:30;;;;;;;12.35;10.80;;;13.60;99.90;;;;;;5054370;28;20076;-67
2023/07/07 02:19:58;;;;;;;13.05;11.32;;;13.70;99.90;;;;;;5037481;28;20044;-67
2023/07/07 02:22:25;;;;;;;12.10;10.50;;;13.70;99.90;;;;;;5054158;28;20139;-66
2023/07/07 02:24:52;;;;;;;15.55;11.25;;;13.60;99.90;;;;;;5054261;28;20492;-67
2023/07/07 02:27:19;;;;;;;13.82;11.00;;;13.60;99.90;;;;;;5054267;28;20457;-67
2023/07/07 02:29:45;;;;;;;12.88;11.05;;;13.60;99.90;;;;;;5038054;28;20106;-67
2023/07/07 02:32:11;;;;;;;13.50;12.07;;;13.60;99.90;;;;;;5071664;28;20118;-67
2023/07/07 02:34:40;;;;;;;14.77;11.57;;;13.60;99.90;;;;;;5059549;28;20066;-67
2023/07/07 02:37:12;;;;;;;14.45;11.90;;;13.50;99.90;;;;;;5092384;28;20060;-67
2023/07/07 02:39:40;;;;;;;13.23;11.82;;;13.60;99.90;;;;;;5074321;28;20062;-66
2023/07/07 02:42:06;;;;;;;15.32;11.48;;;13.60;99.90;;;;;;5073487;28;20052;-67
2023/07/07 02:44:32;;;;;;;13.45;11.82;;;13.50;99.90;;;;;;5074380;28;20052;-68
2023/07/07 02:46:59;;;;;;;14.15;11.75;;;13.50;99.90;;;;;;5074317;28;20048;-67
2023/07/07 02:49:25;;;;;;;14.68;11.43;;;13.50;99.90;;;;;;5073891;28;20097;-67
2023/07/07 02:51:51;;;;;;;15.70;12.35;;;13.50;99.90;;;;;;5073583;28;20047;-66
2023/07/07 02:54:18;;;;;;;14.30;12.07;;;13.50;99.90;;;;;;5074203;28;20468;-67
2023/07/07 02:56:46;;;;;;;12.98;11.20;;;13.50;99.90;;;;;;5073686;28;20472;-67
2023/07/07 02:59:13;;;;;;;16.27;12.63;;;13.50;99.90;;;;;;5074359;28;20047;-66
2023/07/07 03:01:44;;;;;;;14.55;11.63;;;13.50;99.90;;;;;;5074108;28;20325;-67
2023/07/07 03:04:12;;;;;;;16.15;12.60;;;13.40;99.90;;;;;;5073817;28;20056;-67
2023/07/07 03:06:39;;;;;;;17.67;13.60;;;13.50;99.90;;;;;;5073130;28;20054;-67
2023/07/07 03:09:07;;;;;;;15.13;11.85;;;13.50;99.90;;;;;;5073885;28;20419;-67
2023/07/07 03:11:34;;;;;;;15.57;12.00;;;13.40;99.90;;;;;;5073798;28;20062;-67
2023/07/07 03:14:01;;;;;;;19.88;12.65;;;13.50;99.90;;;;;;5073136;28;20052;-66
2023/07/07 03:16:32;;;;;;;16.90;13.93;;;13.50;99.90;;;;;;5073457;28;20058;-67
2023/07/07 03:19:05;;;;;;;15.23;12.95;;;13.40;99.90;;;;;;5073878;28;20044;-67
2023/07/07 03:21:35;;;;;;;18.38;12.88;;;13.40;99.90;;;;;;5073469;28;20410;-67
2023/07/07 03:24:01;;;;;;;15.45;12.77;;;13.40;99.90;;;;;;5073619;28;20048;-67
2023/07/07 03:26:28;;;;;;;17.90;14.20;;;13.40;99.90;;;;;;5073343;28;20052;-67
2023/07/07 03:28:55;;;;;;;15.80;12.82;;;13.40;99.90;;;;;;5073659;28;20056;-67
2023/07/07 03:31:24;;;;;;;14.45;12.85;;;13.40;99.90;;;;;;5058179;28;20060;-66
2023/07/07 03:33:53;;;;;;;18.13;13.25;;;13.40;99.90;;;;;;5077108;28;20474;-67
2023/07/07 03:36:26;;;;;;;15.43;12.13;;;13.40;99.90;;;;;;5077014;28;20055;-67
2023/07/07 03:38:52;;;;;;;19.65;13.00;;;13.40;99.90;;;;;;5061359;28;20039;-66
2023/07/07 03:41:22;;;;;;;17.20;12.63;;;13.30;99.90;;;;;;5077820;28;20041;-67
2023/07/07 03:43:49;;;;;;;18.92;12.38;;;13.40;99.90;;;;;;5077091;28;20064;-67
2023/07/07 03:46:18;;;;;;;16.77;12.40;;;13.40;99.90;;;;;;5057470;28;20110;-67
2023/07/07 03:48:46;;;;;;;17.35;14.05;;;13.40;99.90;;;;;;5075311;28;20058;-67
2023/07/07 03:51:15;;;;;;;18.75;13.38;;;13.40;99.90;;;;;;5057409;28;20051;-67
2023/07/07 03:53:42;;;;;;;15.65;14.02;;;13.40;99.90;;;;;;5040356;28;20047;-67
2023/07/07 03:56:08;;;;;;;15.80;13.63;;;13.50;99.90;;;;;;5074145;28;20476;-66
2023/07/07 03:58:36;;;;;;;17.27;14.25;;;13.40;99.90;;;;;;5077289;28;20476;-67
2023/07/07 04:01:04;;;;;;;17.90;13.73;;;13.40;99.90;;;;;;5060785;28;20048;-67
2023/07/07 04:03:31;;;;;;;17.25;13.90;;;13.50;99.90;;;;;;5076578;28;20054;-67
2023/07/07 04:06:01;;;;;;;15.57;13.98;;;13.40;99.90;;;;;;5076704;28;20102;-67
2023/07/07 04:08:28;;;;;;;15.48;12.95;;;13.50;99.90;;;;;;5076901;28;20392;-67
2023/07/07 04:11:04;;;;;;;17.83;14.35;;;13.50;99.90;;;;;;5076988;28;20066;-66
2023/07/07 04:13:32;;;;;;;15.93;13.60;;;13.60;99.90;;;;;;5076786;28;20419;-67
2023/07/07 04:16:00;;;;;;;18.80;13.30;;;13.50;99.90;;;;;;5076603;28;20055;-67
2023/07/07 04:18:26;;;;;;;14.95;12.38;;;13.60;99.90;;;;;;5094548;28;20044;-66
2023/07/07 04:20:52;;;;;;;16.83;13.85;;;13.60;99.90;;;;;;5076304;28;20044;-67
2023/07/07 04:23:18;;;;;;;18.83;14.00;;;13.70;99.90;;;;;;5094236;28;20055;-67
2023/07/07 04:25:45;;;;;;;16.33;13.63;;;13.60;99.90;;;;;;5076464;28;20048;-67
2023/07/07 04:28:11;;;;;;;19.08;13.65;;;13.70;99.90;;;;;;5076923;28;20070;-66
2023/07/07 04:30:38;;;;;;;16.42;13.43;;;13.70;99.90;;;;;;5076506;28;20074;-67
2023/07/07 04:33:04;;;;;;;16.90;12.07;;;13.70;99.90;;;;;;5059495;28;20049;-66
2023/07/07 04:35:35;;;;;;;17.90;13.95;;;13.80;99.90;;;;;;5075559;28;20040;-66
2023/07/07 04:38:02;;;;;;;18.52;14.18;;;13.80;99.90;;;;;;5059889;28;20110;-67
2023/07/07 04:40:31;;;;;;;17.90;12.85;;;13.90;99.90;;;;;;5076966;28;20452;-67
2023/07/07 04:42:58;;;;;;;18.10;13.38;;;14.00;99.90;;;;;;5075308;28;20052;-67
2023/07/07 04:45:25;;;;;;;16.55;13.80;;;14.00;99.90;;;;;;5059316;28;20048;-68
2023/07/07 04:47:51;;;;;;;17.42;13.00;;;14.10;99.90;;;;;;5076333;28;20443;-67
2023/07/07 04:50:17;;;;;;;17.83;13.68;;;14.10;99.90;;;;;;5094205;28;20052;-66
2023/07/07 04:52:44;;;;;;;17.40;14.32;;;14.10;99.90;;;;;;5075807;28;20047;-66
2023/07/07 04:55:12;;;;;;;16.63;13.45;;;14.20;99.90;;;;;;5059828;28;20048;-67
2023/07/07 04:57:39;;;;;;;17.20;13.98;;;14.30;99.90;;;;;;5059765;28;20459;-66
2023/07/07 05:00:07;;;;;;;18.52;14.52;;;14.80;99.90;;;;;;5076351;28;20048;-68
2023/07/07 05:02:35;;;;;;;15.68;13.25;;;15.90;99.90;;;;;;5059151;28;20044;-67
2023/07/07 05:05:03;;;;;;;16.40;13.48;;;17.00;99.90;;;;;;5075552;28;20044;-67
2023/07/07 05:07:29;;;;;;;15.13;12.75;;;18.00;99.90;;;;;;5049634;28;20044;-67
2023/07/07 05:09:56;;;;;;;14.00;12.60;;;18.90;99.90;;;;;;5038949;28;20074;-67
2023/07/07 05:12:22;;;;;;;14.35;12.85;;;19.60;99.90;;;;;;5062072;28;20055;-68
2023/07/07 05:14:50;;;;;;;14.40;12.90;;;20.20;99.90;;;;;;5086546;28;20055;-68
2023/07/07 05:17:17;;;;;;;14.57;12.38;;;20.60;99.90;;;;;;5064298;28;20261;-67
2023/07/07 05:19:45;;;;;;;13.80;12.35;;;21.00;99.90;;;;;;5064593;28;20048;-67
2023/07/07 05:22:11;;;;;;;14.73;12.60;;;21.30;99.90;;;;;;5061139;28;20048;-68
2023/07/07 05:24:39;;;;;;;13.50;12.10;;;21.80;99.90;;;;;;5069640;28;20048;-68
2023/07/07 05:27:05;;;;;;;15.57;12.05;;;22.10;99.90;;;;;;5092867;28;20451;-68
2023/07/07 05:29:31;;;;;;;12.98;11.75;;;22.30;99.90;;;;;;5059076;28;20055;-67
2023/07/07 05:31:58;;;;;;;13.60;11.70;;;22.60;99.90;;;;;;5047044;28;20101;-67
2023/07/07 05:34:24;;;;;;;13.85;10.93;;;22.80;99.90;;;;;;5063115;28;20055;-68
2023/07/07 05:36:50;;;;;;;12.90;11.60;;;23.40;99.90;;;;;;5071735;28;20557;-67
2023/07/07 05:39:17;;;;;;;13.18;11.20;;;23.30;99.90;;;;;;5075567;28;20051;-68
2023/07/07 05:41:44;;;;;;;14.20;11.90;;;23.50;99.90;;;;;;5058227;28;20044;-67
2023/07/07 05:44:10;;;;;;;13.13;11.73;;;23.70;99.90;;;;;;5075386;28;20052;-68
2023/07/07 05:46:36;;;;;;;13.23;11.43;;;23.90;99.90;;;;;;5071617;28;20109;-67
2023/07/07 05:49:02;;;;;;;13.18;11.98;;;24.20;99.90;;;;;;5056925;28;20376;-68
2023/07/07 05:51:30;;;;;;;12.52;11.10;;;24.30;99.90;;;;;;5068082;28;20508;-67
2023/07/07 05:53:56;;;;;;;11.98;10.68;;;24.50;99.90;;;;;;5073868;28;20051;-67
2023/07/07 05:56:24;;;;;;;13.35;10.05;;;24.80;99.90;;;;;;5064911;28;20678;-68
2023/07/07 05:58:52;;;;;;;12.23;10.80;;;25.00;99.90;;;;;;5042222;28;20051;-67
2023/07/07 06:01:18;;;;;;;12.60;11.20;;;25.10;99.90;;;;;;5068425;28;20044;-67
2023/07/07 06:03:45;;;;;;;13.88;10.50;;;25.30;99.90;;;;;;5074382;28;20491;-67
2023/07/07 06:06:14;;;;;;;11.43;9.57;;;25.60;99.90;;;;;;5066556;28;20399;-68
2023/07/07 06:08:41;;;;;;;11.90;10.27;;;25.70;99.90;;;;;;5064180;28;20056;-67
2023/07/07 06:11:07;;;;;;;12.35;10.40;;;25.90;99.90;;;;;;5062597;28;20461;-67
2023/07/07 06:13:37;;;;;;;12.50;10.52;;;26.10;99.90;;;;;;5062160;28;20060;-66
2023/07/07 06:16:05;;;;;;;14.63;10.02;;;26.20;99.90;;;;;;5066422;28;20590;-66
2023/07/07 06:18:31;;;;;;;11.55;9.57;;;26.20;99.90;;;;;;5048334;28;20048;-67
2023/07/07 06:20:59;;;;;;;10.80;9.60;;;26.20;99.60;;;;;;5063164;28;20063;-67
2023/07/07 06:23:27;;;;;;;10.35;9.25;;;26.50;99.70;;;;;;5046804;28;20347;-67
2023/07/07 06:25:54;;;;;;;10.35;9.32;;;26.70;99.80;;;;;;5067257;28;20056;-67
2023/07/07 06:28:21;;;;;;;10.88;9.65;;;26.80;99.90;;;;;;5067789;28;20109;-67
2023/07/07 06:30:49;;;;;;;11.32;9.35;;;27.20;99.20;;;;;;5064132;28;20169;-68
2023/07/07 06:33:20;;;;;;;10.20;8.63;;;27.20;99.10;;;;;;5046760;28;20056;-69
2023/07/07 06:35:46;;;;;;;9.68;8.65;;;27.20;98.10;;;;;;5048033;28;20056;-68
2023/07/07 06:38:12;;;;;;;9.48;8.52;;;27.10;98.90;;;;;;5043195;28;20048;-68
2023/07/07 06:40:39;;;;;;;11.10;8.60;;;27.40;98.80;;;;;;5052280;28;20044;-68
2023/07/07 06:43:05;;;;;;;9.52;8.52;;;27.20;98.40;;;;;;5058796;28;20450;-67
2023/07/07 06:45:34;;;;;;;9.32;7.95;;;27.30;98.00;;;;;;5037399;28;20098;-67
2023/07/07 06:48:02;;;;;;;9.95;7.03;;;27.40;98.30;;;;;;5045676;28;20060;-68
2023/07/07 06:50:35;;;;;;;10.00;7.85;;;27.50;98.10;;;;;;5049234;28;20055;-67
2023/07/07 06:53:02;;;;;;;9.98;7.60;;;27.80;97.40;;;;;;5053786;28;20048;-66
2023/07/07 06:55:29;;;;;;;9.80;7.35;;;27.80;97.80;;;;;;5054391;28;20052;-67
2023/07/07 06:57:55;;;;;;;9.02;6.65;;;27.90;97.20;;;;;;5054659;28;20048;-68
2023/07/07 07:00:22;;;;;;;9.25;7.20;;;28.20;97.20;;;;;;5053024;28;20048;-68
2023/07/07 07:02:48;;;;;;;10.10;6.25;;;28.10;97.20;;;;;;5053689;28;20280;-68
2023/07/07 07:05:23;;;;;;;8.77;6.55;;;27.10;96.60;;;;;;5054188;28;20051;-67
2023/07/07 07:07:50;;;;;;;8.52;6.45;;;26.70;97.40;;;;;;5053096;28;20067;-68
2023/07/07 07:10:16;;;;;;;7.53;6.80;;;26.20;98.00;;;;;;5051814;28;20044;-68
2023/07/07 07:12:42;;;;;;;8.18;6.80;;;25.80;98.10;;;;;;5052431;28;20057;-68
2023/07/07 07:15:09;;;;;;;7.43;6.28;;;25.60;98.40;;;;;;5036752;28;20048;-68
2023/07/07 07:17:36;;;;;;;7.78;6.30;;;25.60;98.70;;;;;;5053657;28;20494;-67
2023/07/07 07:20:06;;;;;;;7.80;6.13;;;25.50;98.80;;;;;;5052953;28;20102;-68
2023/07/07 07:22:32;;;;;;;9.30;6.20;;;25.40;98.40;;;;;;5053856;28;20052;-68
2023/07/07 07:24:59;;;;;;;8.95;6.20;;;25.40;98.40;;;;;;5054215;28;20036;-68
2023/07/07 07:27:25;;;;;;;6.63;5.50;;;25.50;98.40;;;;;;5053467;28;20389;-68
2023/07/07 07:29:51;;;;;;;6.90;5.15;;;25.50;98.20;;;;;;5053260;28;20044;-67
2023/07/07 07:32:19;;;;;;;8.10;5.47;;;25.70;98.30;;;;;;5053613;28;20049;-68
2023/07/07 07:34:45;;;;;;;6.18;4.90;;;25.70;98.30;;;;;;5059347;28;20476;-68
2023/07/07 07:37:12;;;;;;;9.05;5.13;;;25.80;98.30;;;;;;5073455;28;20040;-68
2023/07/07 07:39:38;;;;;;;5.90;4.50;;;25.80;98.00;;;;;;5073058;28;20040;-68
2023/07/07 07:42:05;;;;;;;5.88;4.40;;;25.70;97.70;;;;;;5073882;28;20062;-68
2023/07/07 07:44:31;;;;;;;6.15;4.03;;;25.70;97.80;;;;;;5073198;28;20416;-68
2023/07/07 07:46:58;;;;;;;7.88;4.68;;;25.70;97.70;;;;;;5056727;28;20059;-68
2023/07/07 07:49:26;;;;;;;5.53;4.40;;;25.80;97.40;;;;;;5056219;28;20056;-68
2023/07/07 07:51:56;;;;;;;6.57;4.30;;;25.90;97.30;;;;;;5073099;28;20050;-67
2023/07/07 07:54:23;;;;;;;6.38;3.85;;;25.90;97.20;;;;;;5073009;28;20050;-67
2023/07/07 07:56:50;;;;;;;5.90;3.95;;;25.80;97.40;;;;;;5090926;28;20051;-66
2023/07/07 07:59:17;;;;;;;6.80;3.40;;;25.80;97.40;;;;;;5062156;28;20449;-68
2023/07/07 08:01:44;;;;;;;5.57;3.63;;;25.80;96.80;;;;;;5073757;28;20115;-68
2023/07/07 08:04:10;;;;;;;6.72;3.55;;;25.70;97.10;;;;;;5040650;28;20051;-68
2023/07/07 08:06:37;;;;;;;5.63;3.55;;;25.80;96.80;;;;;;5063630;28;20114;-69
2023/07/07 08:09:03;;;;;;;6.35;4.38;;;26.00;96.90;;;;;;5061884;28;20761;-68
2023/07/07 08:11:42;;;;;;;6.50;3.97;;;26.00;96.90;;;;;;5063576;28;20058;-69
2023/07/07 08:14:12;;;;;;;6.10;3.60;;;26.00;95.90;;;;;;5081277;28;20040;-68
2023/07/07 08:16:39;;;;;;;4.68;3.33;;;26.10;96.30;;;;;;5046809;28;20044;-69
2023/07/07 08:19:05;;;;;;;5.88;3.63;;;26.00;96.30;;;;;;5065588;28;20150;-68
2023/07/07 08:21:34;;;;;;;7.80;3.63;;;26.10;96.40;;;;;;5067159;28;20036;-69
2023/07/07 08:24:01;;;;;;;6.32;3.40;;;26.20;96.20;;;;;;5064677;28;20376;-69
2023/07/07 08:26:27;;;;;;;5.28;3.50;;;26.10;96.30;;;;;;5082578;28;20365;-68
2023/07/07 08:28:54;;;;;;;6.53;3.67;;;26.30;96.20;;;;;;5075991;28;20102;-68
2023/07/07 08:31:20;;;;;;;5.00;3.30;;;26.30;96.20;;;;;;5076860;28;20472;-68
2023/07/07 08:33:47;;;;;;;5.65;3.38;;;26.30;95.80;;;;;;5060229;28;20098;-69
2023/07/07 08:36:13;;;;;;;4.85;3.35;;;26.20;95.60;;;;;;5094744;28;20052;-68
2023/07/07 08:38:39;;;;;;;4.30;3.20;;;26.30;95.50;;;;;;5094599;28;20471;-68
2023/07/07 08:41:05;;;;;;;5.18;3.05;;;26.60;94.90;;;;;;5060545;28;20063;-68
2023/07/07 08:43:32;;;;;;;5.70;2.90;;;26.60;94.70;;;;;;5077194;28;20048;-68
2023/07/07 08:46:17;;;;;;;3.95;2.88;;;26.60;94.50;;;;;;5076818;28;20338;-67
2023/07/07 08:48:54;;;;;;;4.18;2.92;;;26.60;94.20;;;;;;5059958;28;20101;-67
2023/07/07 08:51:32;;;;;;;4.05;2.80;;;26.40;94.30;;;;;;5059857;28;20680;-67
2023/07/07 08:54:38;;;;;;;4.75;2.97;;;26.40;93.70;;;;;;5094877;28;20044;-67
2023/07/07 08:57:12;;;;;;;6.18;3.20;;;26.40;94.00;;;;;;5032126;28;20044;-67
2023/07/07 08:59:55;;;;;;;8.38;4.05;;;26.60;94.60;;;;;;5079214;28;20388;-68
2023/07/07 09:02:48;;;;;;;4.03;2.80;;;26.50;94.00;;;;;;5093539;28;20367;-68
2023/07/07 09:05:43;;;;;;;5.38;3.13;;;26.60;93.00;;;;;;5094316;28;20062;-67
2023/07/07 09:08:19;;;;;;;5.57;3.20;;;26.50;93.30;;;;;;5094779;28;20074;-67
2023/07/07 09:11:08;;;;;;;5.85;3.03;;;26.50;93.40;;;;;;5056277;28;20060;-67
2023/07/07 09:13:36;;;;;;;5.13;3.20;;;26.60;93.20;;;;;;5056863;28;20130;-67
2023/07/07 09:16:14;;;;;;;3.80;2.78;;;26.60;93.30;;;;;;5085446;28;20040;-67
2023/07/07 09:18:47;;;;;;;7.88;3.55;;;26.60;93.10;;;;;;5093882;28;20464;-68
2023/07/07 09:21:42;;;;;;;5.55;3.40;;;26.60;93.20;;;;;;5094531;28;20059;-68
2023/07/07 09:24:32;;;;;;;5.50;2.90;;;26.50;93.90;;;;;;5093463;28;20357;-67
2023/07/07 09:27:08;;;;;;;4.35;2.63;;;26.60;92.70;;;;;;5094235;28;20052;-68
2023/07/07 09:29:35;;;;;;;3.53;2.70;;;26.80;92.40;;;;;;5088711;28;20047;-68
2023/07/07 09:32:02;;;;;;;5.75;3.83;;;26.60;92.60;;;;;;5066501;28;20052;-70
2023/07/07 09:34:30;;;;;;;4.82;3.22;;;26.70;92.80;;;;;;5074611;28;20456;-67
2023/07/07 09:37:12;;;;;;;3.75;2.70;;;26.70;92.90;;;;;;5055420;28;20305;-69
2023/07/07 09:40:00;;;;;;;3.13;2.53;;;26.70;93.00;;;;;;5071711;28;20072;-68
2023/07/07 09:42:38;;;;;;;3.58;2.80;;;26.50;93.00;;;;;;5073443;28;20048;-68
2023/07/07 09:45:52;;;;;;;4.43;2.85;;;26.50;93.00;;;;;;5080882;28;20086;-67
2023/07/07 09:48:24;;;;;;;4.88;2.92;;;26.70;93.10;;;;;;5062448;28;20053;-67
2023/07/07 09:50:53;;;;;;;3.72;2.45;;;26.60;91.50;;;;;;5075544;28;20369;-68
2023/07/07 09:53:28;;;;;;;3.80;2.60;;;26.80;92.50;;;;;;5093676;28;20350;-68
2023/07/07 09:55:55;;;;;;;4.53;2.95;;;26.90;92.30;;;;;;5093276;28;20044;-67
2023/07/07 09:58:36;;;;;;;4.30;3.00;;;26.90;92.30;;;;;;5093336;28;20480;-68
2023/07/07 10:01:03;;;;;;;3.60;2.70;;;27.00;91.60;;;;;;5061083;28;20051;-68
2023/07/07 10:03:43;;;;;;;5.47;3.03;;;27.00;92.10;;;;;;5067362;28;20040;-67
2023/07/07 10:06:27;;;;;;;7.03;3.17;;;27.10;91.60;;;;;;5085852;28;20048;-68
2023/07/07 10:08:53;;;;;;;6.95;3.00;;;27.10;92.00;;;;;;5074028;28;20139;-68
2023/07/07 10:11:24;;;;;;;4.70;3.05;;;27.20;91.40;;;;;;5075136;28;20055;-68
2023/07/07 10:13:52;;;;;;;;;;;27.10;91.10;;;;;;5075375;28;20040;-68
2023/07/07 10:16:30;;;;;;;3.75;3.00;;;27.20;91.20;;;;;;5074155;28;19923;-68
2023/07/07 10:18:59;;;;;;;6.20;3.10;;;27.20;91.30;;;;;;5074044;28;20044;-68
2023/07/07 10:21:26;;;;;;;5.28;2.92;;;27.30;91.30;;;;;;5074033;28;20125;-67
2023/07/07 10:23:52;;;;;;;6.05;2.80;;;27.30;91.60;;;;;;5074261;28;20055;-68
2023/07/07 10:26:19;;;;;;;5.75;2.95;;;27.30;91.10;;;;;;5057538;28;20123;-67
2023/07/07 10:28:47;;;;;;;6.68;2.95;;;27.30;90.50;;;;;;5052841;28;20048;-68
2023/07/07 10:31:16;;;;;;;4.43;2.80;;;27.20;90.70;;;;;;5056689;28;20057;-68
2023/07/07 10:33:43;;;;;;;3.97;2.80;;;27.20;90.40;;;;;;5055913;28;20043;-68
2023/07/07 10:36:24;;;;;;;11.40;3.30;;;27.10;90.80;;;;;;5073574;28;20071;-68
2023/07/07 10:38:54;;;;;;;4.18;2.67;;;27.20;90.80;;;;;;5057087;28;20048;-67
2023/07/07 10:41:21;;;;;;;4.47;2.97;;;27.30;90.90;;;;;;5074000;28;20048;-68
2023/07/07 10:43:47;;;;;;;4.20;2.47;;;27.50;91.00;;;;;;5073844;28;20050;-67
2023/07/07 10:46:15;;;;;;;7.47;3.13;;;27.30;90.60;;;;;;5070750;28;20044;-66
2023/07/07 10:48:44;;;;;;;4.80;2.85;;;27.30;90.60;;;;;;5072913;28;20052;-66
2023/07/07 10:51:53;;;;;;;4.88;3.55;;;27.50;90.90;;;;;;5072995;28;20081;-66
2023/07/07 10:55:10;;;;;;;5.40;2.78;;;27.40;90.40;;;;;;5089456;28;20102;-68
2023/07/07 10:57:52;;;;;;;5.80;2.90;;;27.40;90.70;;;;;;5035468;28;20052;-67
2023/07/07 11:00:37;;;;;;;6.85;2.92;;;27.50;90.50;;;;;;5058172;28;20040;-66
2023/07/07 11:03:29;;;;;;;4.32;2.80;;;27.50;90.20;;;;;;5054432;28;20051;-67
2023/07/07 11:06:08;;;;;;;4.45;2.75;;;27.50;90.20;;;;;;5066081;28;20069;-70
2023/07/07 11:08:46;;;;;;;6.55;3.75;;;27.40;88.90;;;;;;5089787;28;20052;-67
2023/07/07 11:11:26;;;;;;;5.22;2.83;;;27.50;87.70;;;;;;5074839;28;20048;-67
2023/07/07 11:14:01;;;;;;;6.82;3.10;;;27.50;89.10;;;;;;5074725;28;20056;-68
2023/07/07 11:16:52;;;;;;;3.65;2.83;;;27.50;88.60;;;;;;5057146;28;20106;-67
2023/07/07 11:19:49;;;;;;;4.13;3.00;;;27.60;88.90;;;;;;5073426;28;20056;-67
2023/07/07 11:22:53;;;;;;;4.93;2.92;;;27.70;90.00;;;;;;5057412;28;20517;-67
2023/07/07 11:25:28;;;;;;;4.60;2.83;;;27.80;90.10;;;;;;5060933;28;20048;-67
2023/07/07 11:28:30;;;;;;;4.35;3.10;;;27.60;86.40;;;;;;5043119;28;20040;-68
2023/07/07 11:31:20;;;;;;;4.05;2.88;;;27.70;87.90;;;;;;5062520;28;20068;-68
2023/07/07 11:34:08;;;;;;;5.63;2.97;;;27.50;88.00;;;;;;5066142;28;20125;-68
2023/07/07 11:37:17;;;;;;;4.85;3.20;;;27.60;88.20;;;;;;5073234;28;20044;-67
2023/07/07 11:39:57;;;;;;;6.20;3.20;;;27.70;88.90;;;;;;4973988;28;20076;-68
2023/07/07 11:42:51;;;;;;;4.30;2.67;;;27.80;88.00;;;;;;5050883;28;20448;-68
2023/07/07 11:45:52;;;;;;;5.72;3.10;;;27.90;87.90;;;;;;5073596;28;20078;-68
2023/07/07 11:48:32;;;;;;;6.15;2.80;;;27.90;87.70;;;;;;5091911;28;20059;-68
2023/07/07 11:51:14;;;;;;;4.75;3.30;;;28.00;87.20;;;;;;5070251;28;20048;-67
2023/07/07 11:54:17;;;;;;;5.78;2.90;;;28.00;86.80;;;;;;5075504;28;20056;-68
2023/07/07 11:57:02;;;;;;;4.80;3.30;;;28.00;85.90;;;;;;5061137;28;20165;-67
2023/07/07 11:59:47;;;;;;;4.55;2.80;;;28.00;87.70;;;;;;5060510;28;20529;-68
2023/07/07 12:02:21;;;;;;;4.40;3.13;;;27.70;84.30;;;;;;5078226;28;20102;-67
2023/07/07 12:04:51;;;;;;;4.72;3.05;;;27.70;86.50;;;;;;5074532;28;20047;-66
2023/07/07 12:07:24;;;;;;;6.80;3.13;;;27.80;85.80;;;;;;5077686;28;20052;-67
2023/07/07 12:10:04;;;;;;;5.75;3.00;;;27.80;85.00;;;;;;5060317;28;20064;-67
2023/07/07 12:12:38;;;;;;;5.75;3.28;;;27.90;84.70;;;;;;5074829;28;20044;-68
2023/07/07 12:15:14;;;;;;;4.47;3.03;;;27.80;85.90;;;;;;5063838;28;20375;-67
2023/07/07 12:17:48;;;;;;;5.13;2.88;;;27.70;85.40;;;;;;5060814;28;20051;-67
2023/07/07 12:20:21;;;;;;;5.60;3.30;;;27.90;86.10;;;;;;5070277;28;20044;-66
2023/07/07 12:22:48;;;;;;;5.15;2.78;;;27.90;85.70;;;;;;5076667;28;20044;-66
2023/07/07 12:25:24;;;;;;;3.00;2.42;;;27.90;86.30;;;;;;5091831;28;20051;-67
2023/07/07 12:27:51;;;;;;;4.63;3.17;;;27.80;85.90;;;;;;5076773;28;20052;-67
2023/07/07 12:30:23;;;;;;;5.95;3.10;;;28.00;86.90;;;;;;5072280;28;20044;-67
2023/07/07 12:32:51;;;;;;;4.57;3.00;;;28.10;86.80;;;;;;5059020;28;20056;-67
2023/07/07 12:35:25;;;;;;;4.85;3.10;;;28.00;86.30;;;;;;5059430;28;20066;-67
2023/07/07 12:37:55;;;;;;;4.82;3.25;;;27.90;85.90;;;;;;5059106;28;20090;-67
2023/07/07 12:40:22;;;;;;;3.72;2.88;;;28.10;86.60;;;;;;5086789;28;20455;-67
2023/07/07 12:42:57;;;;;;;4.72;2.88;;;28.10;85.80;;;;;;5093752;28;20054;-67
2023/07/07 12:45:30;;;;;;;4.25;2.67;;;28.20;85.50;;;;;;5094824;28;20058;-67
2023/07/07 12:48:02;;;;;;;4.30;3.13;;;28.30;85.00;;;;;;5095191;28;20064;-67
2023/07/07 12:50:38;;;;;;;6.50;3.47;;;28.30;84.70;;;;;;5094405;28;20044;-67
2023/07/07 12:53:27;;;;;;;6.50;3.17;;;28.00;84.60;;;;;;5095478;28;20048;-67
2023/07/07 12:56:07;;;;;;;4.47;3.00;;;28.40;85.10;;;;;;5051579;28;20052;-68
2023/07/07 12:58:36;;;;;;;3.65;3.08;;;28.20;84.70;;;;;;5076521;28;20055;-68
2023/07/07 13:01:08;;;;;;;3.88;2.60;;;28.20;86.10;;;;;;5076692;28;20105;-67
2023/07/07 13:03:56;;;;;;;5.18;3.35;;;28.30;86.10;;;;;;5076280;28;20059;-67